Portada
METAR-TAF:

METAR-TAF

Aeroports :

Andrews-Murphy Airport

Andrews, Carolina del Nord, Estats Units d'Amèrica

latitud: 35-11-42N, longitud: 083-51-49W, altitud: 517 m

Observació

L'informe es va fer fa 37 minuts, a les 00:49 UTC
Vent calma
Temperatura 16°C
Humitat 82%
Pressió 1021 hPa
Visibilitat: 16.1 km
Cel cobert a una alçada de 3800 ft

METAR: KRHP 180049Z AUTO 00000KT 10SM OVC038 16/13 A3014 RMK AO2 T01550133

Hora: 21:26 (01:26 UTC)


TAF: manca

Observacions i pronòstics meteorològics de més de 4000 aeroports (METAR i TAF).

Les estacions disponibles són els punts grocs i vermells al mapa.

Posi el ratolí al punt desitjat per veure el nom de l'estació.

Feu clic per veure les observacions i els pronòstics meteorològics.

Per canviar el mapa: feu clic els botons verds amb una creu de color negre per apropar; al botó verd amb un guió per allunyar la imatge; o en les fletxes verdes per a mapes adjacents.


METAR-TAF: